<?xml version="1.0" encoding="UTF-8" standalone="no" ?>
<gpx xmlns="http://www.topografix.com/GPX/1/1" xmlns:xsi="http://www.w3.org/2001/XMLSchema-instance" xsi:schemaLocation="http://www.topografix.com/GPX/1/1 http://www.topografix.com/GPX/1/1/gpx.xsd" version="1.1" creator="VisuGPX - https://www.visugpx.com">
  <metadata>
    <name>Pau-Pamir J2</name>
    <desc><![CDATA[Pau Pamir J2
Voie verte entre St Girons et Foix: joli, mais mal balisé et tronçons difficiles pour les vélos route!]]></desc>
  </metadata>
  <trk>
    <name><![CDATA[2018-05-17-01]]></name>
    <trkseg>
      <trkpt lat="43.09366" lon="0.74707">
        <ele>134.3</ele>
        <time>2018-05-17T08:06:12Z</time>
      </trkpt>
      <trkpt lat="43.0937" lon="0.74668">
        <ele>91.6</ele>
        <time>2018-05-17T08:06:13Z</time>
      </trkpt>
      <trkpt lat="43.09513" lon="0.74823">
        <ele>268.1</ele>
        <time>2018-05-17T08:14:42Z</time>
      </trkpt>
      <trkpt lat="43.09581" lon="0.75055">
        <ele>266.6</ele>
        <time>2018-05-17T08:15:11Z</time>
      </trkpt>
      <trkpt lat="43.09599" lon="0.75303">
        <ele>256</ele>
        <time>2018-05-17T08:15:41Z</time>
      </trkpt>
      <trkpt lat="43.09619" lon="0.75554">
        <ele>253.2</ele>
        <time>2018-05-17T08:16:06Z</time>
      </trkpt>
      <trkpt lat="43.0965" lon="0.75802">
        <ele>273.5</ele>
        <time>2018-05-17T08:16:33Z</time>
      </trkpt>
      <trkpt lat="43.09707" lon="0.76043">
        <ele>298</ele>
        <time>2018-05-17T08:17:00Z</time>
      </trkpt>
      <trkpt lat="43.09741" lon="0.76286">
        <ele>309.4</ele>
        <time>2018-05-17T08:17:26Z</time>
      </trkpt>
      <trkpt lat="43.09734" lon="0.76536">
        <ele>307</ele>
        <time>2018-05-17T08:17:52Z</time>
      </trkpt>
      <trkpt lat="43.09725" lon="0.76788">
        <ele>300.7</ele>
        <time>2018-05-17T08:18:18Z</time>
      </trkpt>
      <trkpt lat="43.09721" lon="0.77037">
        <ele>309.8</ele>
        <time>2018-05-17T08:18:45Z</time>
      </trkpt>
      <trkpt lat="43.09714" lon="0.77286">
        <ele>315.7</ele>
        <time>2018-05-17T08:19:12Z</time>
      </trkpt>
      <trkpt lat="43.09717" lon="0.77539">
        <ele>325.6</ele>
        <time>2018-05-17T08:19:38Z</time>
      </trkpt>
      <trkpt lat="43.09715" lon="0.77788">
        <ele>327.6</ele>
        <time>2018-05-17T08:20:05Z</time>
      </trkpt>
      <trkpt lat="43.09699" lon="0.78041">
        <ele>333</ele>
        <time>2018-05-17T08:20:31Z</time>
      </trkpt>
      <trkpt lat="43.0969" lon="0.78293">
        <ele>332.8</ele>
        <time>2018-05-17T08:20:57Z</time>
      </trkpt>
      <trkpt lat="43.0965" lon="0.78541">
        <ele>333.7</ele>
        <time>2018-05-17T08:21:24Z</time>
      </trkpt>
      <trkpt lat="43.09567" lon="0.78761">
        <ele>334.9</ele>
        <time>2018-05-17T08:21:51Z</time>
      </trkpt>
      <trkpt lat="43.09492" lon="0.78992">
        <ele>334.7</ele>
        <time>2018-05-17T08:22:16Z</time>
      </trkpt>
      <trkpt lat="43.09437" lon="0.79234">
        <ele>333.2</ele>
        <time>2018-05-17T08:22:41Z</time>
      </trkpt>
      <trkpt lat="43.09375" lon="0.79466">
        <ele>330.1</ele>
        <time>2018-05-17T08:23:10Z</time>
      </trkpt>
      <trkpt lat="43.09302" lon="0.79694">
        <ele>327.7</ele>
        <time>2018-05-17T08:23:37Z</time>
      </trkpt>
      <trkpt lat="43.09192" lon="0.79893">
        <ele>329.1</ele>
        <time>2018-05-17T08:24:04Z</time>
      </trkpt>
      <trkpt lat="43.09073" lon="0.80082">
        <ele>328.1</ele>
        <time>2018-05-17T08:24:31Z</time>
      </trkpt>
      <trkpt lat="43.08977" lon="0.80292">
        <ele>326</ele>
        <time>2018-05-17T08:25:00Z</time>
      </trkpt>
      <trkpt lat="43.08886" lon="0.80511">
        <ele>324.2</ele>
        <time>2018-05-17T08:25:29Z</time>
      </trkpt>
      <trkpt lat="43.08797" lon="0.80728">
        <ele>322.5</ele>
        <time>2018-05-17T08:25:55Z</time>
      </trkpt>
      <trkpt lat="43.08735" lon="0.80962">
        <ele>323.9</ele>
        <time>2018-05-17T08:26:29Z</time>
      </trkpt>
      <trkpt lat="43.08648" lon="0.81185">
        <ele>324.5</ele>
        <time>2018-05-17T08:27:02Z</time>
      </trkpt>
      <trkpt lat="43.08519" lon="0.81368">
        <ele>324.5</ele>
        <time>2018-05-17T08:27:29Z</time>
      </trkpt>
      <trkpt lat="43.08489" lon="0.81617">
        <ele>322.4</ele>
        <time>2018-05-17T08:28:06Z</time>
      </trkpt>
      <trkpt lat="43.08574" lon="0.81838">
        <ele>318.5</ele>
        <time>2018-05-17T08:28:33Z</time>
      </trkpt>
      <trkpt lat="43.08667" lon="0.82056">
        <ele>311.7</ele>
        <time>2018-05-17T08:29:16Z</time>
      </trkpt>
      <trkpt lat="43.08772" lon="0.82256">
        <ele>311.1</ele>
        <time>2018-05-17T08:29:42Z</time>
      </trkpt>
      <trkpt lat="43.08878" lon="0.82459">
        <ele>314.3</ele>
        <time>2018-05-17T08:30:08Z</time>
      </trkpt>
      <trkpt lat="43.08961" lon="0.82684">
        <ele>323.8</ele>
        <time>2018-05-17T08:30:35Z</time>
      </trkpt>
      <trkpt lat="43.0903" lon="0.82918">
        <ele>325.5</ele>
        <time>2018-05-17T08:31:05Z</time>
      </trkpt>
      <trkpt lat="43.09072" lon="0.83162">
        <ele>322.5</ele>
        <time>2018-05-17T08:31:37Z</time>
      </trkpt>
      <trkpt lat="43.09116" lon="0.83405">
        <ele>322.8</ele>
        <time>2018-05-17T08:32:04Z</time>
      </trkpt>
      <trkpt lat="43.09167" lon="0.83649">
        <ele>316.9</ele>
        <time>2018-05-17T08:32:27Z</time>
      </trkpt>
      <trkpt lat="43.0921" lon="0.83897">
        <ele>319.6</ele>
        <time>2018-05-17T08:32:53Z</time>
      </trkpt>
      <trkpt lat="43.0925" lon="0.84143">
        <ele>318.3</ele>
        <time>2018-05-17T08:33:19Z</time>
      </trkpt>
      <trkpt lat="43.09269" lon="0.84389">
        <ele>316.8</ele>
        <time>2018-05-17T08:33:45Z</time>
      </trkpt>
      <trkpt lat="43.09326" lon="0.84625">
        <ele>315.6</ele>
        <time>2018-05-17T08:34:10Z</time>
      </trkpt>
      <trkpt lat="43.09382" lon="0.84866">
        <ele>318.4</ele>
        <time>2018-05-17T08:34:37Z</time>
      </trkpt>
      <trkpt lat="43.09284" lon="0.85079">
        <ele>322.5</ele>
        <time>2018-05-17T08:35:13Z</time>
      </trkpt>
      <trkpt lat="43.09176" lon="0.85279">
        <ele>328.9</ele>
        <time>2018-05-17T08:36:09Z</time>
      </trkpt>
      <trkpt lat="43.09146" lon="0.85523">
        <ele>331</ele>
        <time>2018-05-17T08:37:27Z</time>
      </trkpt>
      <trkpt lat="43.09139" lon="0.85771">
        <ele>344.6</ele>
        <time>2018-05-17T08:38:44Z</time>
      </trkpt>
      <trkpt lat="43.0917" lon="0.86016">
        <ele>358.5</ele>
        <time>2018-05-17T08:39:53Z</time>
      </trkpt>
      <trkpt lat="43.09266" lon="0.86225">
        <ele>353.9</ele>
        <time>2018-05-17T08:40:33Z</time>
      </trkpt>
      <trkpt lat="43.09277" lon="0.86477">
        <ele>353.7</ele>
        <time>2018-05-17T08:41:00Z</time>
      </trkpt>
      <trkpt lat="43.09295" lon="0.8673">
        <ele>349.9</ele>
        <time>2018-05-17T08:41:28Z</time>
      </trkpt>
      <trkpt lat="43.09313" lon="0.86983">
        <ele>352.3</ele>
        <time>2018-05-17T08:41:55Z</time>
      </trkpt>
      <trkpt lat="43.0932" lon="0.87229">
        <ele>351.1</ele>
        <time>2018-05-17T08:42:23Z</time>
      </trkpt>
      <trkpt lat="43.09283" lon="0.8748">
        <ele>347.7</ele>
        <time>2018-05-17T08:42:47Z</time>
      </trkpt>
      <trkpt lat="43.09238" lon="0.87721">
        <ele>344</ele>
        <time>2018-05-17T08:43:07Z</time>
      </trkpt>
      <trkpt lat="43.09198" lon="0.87961">
        <ele>341.6</ele>
        <time>2018-05-17T08:43:34Z</time>
      </trkpt>
      <trkpt lat="43.09136" lon="0.88193">
        <ele>340.6</ele>
        <time>2018-05-17T08:44:10Z</time>
      </trkpt>
      <trkpt lat="43.09075" lon="0.88427">
        <ele>350.3</ele>
        <time>2018-05-17T08:46:21Z</time>
      </trkpt>
      <trkpt lat="43.09006" lon="0.8866">
        <ele>349.8</ele>
        <time>2018-05-17T08:46:58Z</time>
      </trkpt>
      <trkpt lat="43.08878" lon="0.88834">
        <ele>348</ele>
        <time>2018-05-17T08:47:55Z</time>
      </trkpt>
      <trkpt lat="43.08742" lon="0.89002">
        <ele>352.4</ele>
        <time>2018-05-17T08:48:47Z</time>
      </trkpt>
      <trkpt lat="43.08589" lon="0.89136">
        <ele>359.2</ele>
        <time>2018-05-17T08:49:47Z</time>
      </trkpt>
      <trkpt lat="43.08413" lon="0.89197">
        <ele>365.7</ele>
        <time>2018-05-17T08:50:59Z</time>
      </trkpt>
      <trkpt lat="43.08426" lon="0.89443">
        <ele>386.9</ele>
        <time>2018-05-17T08:52:57Z</time>
      </trkpt>
      <trkpt lat="43.08417" lon="0.8969">
        <ele>392.1</ele>
        <time>2018-05-17T08:54:08Z</time>
      </trkpt>
      <trkpt lat="43.08502" lon="0.89911">
        <ele>394.4</ele>
        <time>2018-05-17T08:54:45Z</time>
      </trkpt>
      <trkpt lat="43.0855" lon="0.90151">
        <ele>394.3</ele>
        <time>2018-05-17T08:55:15Z</time>
      </trkpt>
      <trkpt lat="43.08601" lon="0.90389">
        <ele>396.7</ele>
        <time>2018-05-17T08:55:45Z</time>
      </trkpt>
      <trkpt lat="43.08622" lon="0.90634">
        <ele>400.2</ele>
        <time>2018-05-17T08:56:52Z</time>
      </trkpt>
      <trkpt lat="43.08675" lon="0.90871">
        <ele>410.1</ele>
        <time>2018-05-17T08:58:13Z</time>
      </trkpt>
      <trkpt lat="43.08671" lon="0.9112">
        <ele>420.6</ele>
        <time>2018-05-17T08:59:35Z</time>
      </trkpt>
      <trkpt lat="43.08553" lon="0.91309">
        <ele>424.4</ele>
        <time>2018-05-17T09:00:15Z</time>
      </trkpt>
      <trkpt lat="43.08472" lon="0.91535">
        <ele>422.8</ele>
        <time>2018-05-17T09:00:44Z</time>
      </trkpt>
      <trkpt lat="43.08549" lon="0.91758">
        <ele>420.6</ele>
        <time>2018-05-17T09:01:06Z</time>
      </trkpt>
      <trkpt lat="43.0864" lon="0.91983">
        <ele>416.4</ele>
        <time>2018-05-17T09:01:33Z</time>
      </trkpt>
      <trkpt lat="43.08716" lon="0.9221">
        <ele>413.9</ele>
        <time>2018-05-17T09:01:50Z</time>
      </trkpt>
      <trkpt lat="43.0877" lon="0.92446">
        <ele>409.4</ele>
        <time>2018-05-17T09:02:24Z</time>
      </trkpt>
      <trkpt lat="43.08799" lon="0.92693">
        <ele>409.3</ele>
        <time>2018-05-17T09:03:00Z</time>
      </trkpt>
      <trkpt lat="43.08798" lon="0.92946">
        <ele>405.8</ele>
        <time>2018-05-17T09:03:25Z</time>
      </trkpt>
      <trkpt lat="43.08719" lon="0.93175">
        <ele>398.6</ele>
        <time>2018-05-17T09:03:49Z</time>
      </trkpt>
      <trkpt lat="43.08654" lon="0.93407">
        <ele>393.7</ele>
        <time>2018-05-17T09:04:02Z</time>
      </trkpt>
      <trkpt lat="43.08577" lon="0.9364">
        <ele>386.5</ele>
        <time>2018-05-17T09:04:16Z</time>
      </trkpt>
      <trkpt lat="43.08458" lon="0.93844">
        <ele>377.8</ele>
        <time>2018-05-17T09:04:31Z</time>
      </trkpt>
      <trkpt lat="43.08343" lon="0.94044">
        <ele>359.1</ele>
        <time>2018-05-17T09:04:46Z</time>
      </trkpt>
      <trkpt lat="43.08413" lon="0.94272">
        <ele>342.9</ele>
        <time>2018-05-17T09:04:59Z</time>
      </trkpt>
      <trkpt lat="43.08417" lon="0.94527">
        <ele>323.6</ele>
        <time>2018-05-17T09:05:12Z</time>
      </trkpt>
      <trkpt lat="43.08381" lon="0.94787">
        <ele>305.7</ele>
        <time>2018-05-17T09:05:25Z</time>
      </trkpt>
      <trkpt lat="43.08303" lon="0.9501">
        <ele>294.5</ele>
        <time>2018-05-17T09:05:40Z</time>
      </trkpt>
      <trkpt lat="43.08175" lon="0.95187">
        <ele>279.5</ele>
        <time>2018-05-17T09:06:43Z</time>
      </trkpt>
      <trkpt lat="43.08037" lon="0.95351">
        <ele>275.7</ele>
        <time>2018-05-17T09:07:13Z</time>
      </trkpt>
      <trkpt lat="43.0792" lon="0.95544">
        <ele>281.9</ele>
        <time>2018-05-17T09:08:00Z</time>
      </trkpt>
      <trkpt lat="43.07817" lon="0.95756">
        <ele>287.3</ele>
        <time>2018-05-17T09:08:32Z</time>
      </trkpt>
      <trkpt lat="43.07684" lon="0.9593">
        <ele>289.2</ele>
        <time>2018-05-17T09:08:50Z</time>
      </trkpt>
      <trkpt lat="43.07553" lon="0.96102">
        <ele>292.7</ele>
        <time>2018-05-17T09:09:14Z</time>
      </trkpt>
      <trkpt lat="43.07422" lon="0.96271">
        <ele>298.1</ele>
        <time>2018-05-17T09:09:43Z</time>
      </trkpt>
      <trkpt lat="43.07298" lon="0.96453">
        <ele>308.7</ele>
        <time>2018-05-17T09:10:20Z</time>
      </trkpt>
      <trkpt lat="43.07162" lon="0.96622">
        <ele>311.5</ele>
        <time>2018-05-17T09:11:04Z</time>
      </trkpt>
      <trkpt lat="43.06983" lon="0.96675">
        <ele>312.6</ele>
        <time>2018-05-17T09:11:44Z</time>
      </trkpt>
      <trkpt lat="43.06823" lon="0.96794">
        <ele>314.2</ele>
        <time>2018-05-17T09:12:28Z</time>
      </trkpt>
      <trkpt lat="43.06652" lon="0.96875">
        <ele>319.5</ele>
        <time>2018-05-17T09:13:24Z</time>
      </trkpt>
      <trkpt lat="43.06492" lon="0.97008">
        <ele>327.6</ele>
        <time>2018-05-17T09:14:01Z</time>
      </trkpt>
      <trkpt lat="43.06342" lon="0.97144">
        <ele>329.2</ele>
        <time>2018-05-17T09:14:27Z</time>
      </trkpt>
      <trkpt lat="43.06194" lon="0.97287">
        <ele>333.8</ele>
        <time>2018-05-17T09:14:51Z</time>
      </trkpt>
      <trkpt lat="43.06045" lon="0.97428">
        <ele>330</ele>
        <time>2018-05-17T09:15:22Z</time>
      </trkpt>
      <trkpt lat="43.05895" lon="0.97566">
        <ele>327.3</ele>
        <time>2018-05-17T09:15:54Z</time>
      </trkpt>
      <trkpt lat="43.05738" lon="0.97707">
        <ele>317.5</ele>
        <time>2018-05-17T09:16:20Z</time>
      </trkpt>
      <trkpt lat="43.0559" lon="0.97853">
        <ele>318.4</ele>
        <time>2018-05-17T09:16:45Z</time>
      </trkpt>
      <trkpt lat="43.05525" lon="0.98084">
        <ele>321</ele>
        <time>2018-05-17T09:17:12Z</time>
      </trkpt>
      <trkpt lat="43.05532" lon="0.98334">
        <ele>317.7</ele>
        <time>2018-05-17T09:17:39Z</time>
      </trkpt>
      <trkpt lat="43.05509" lon="0.98578">
        <ele>313</ele>
        <time>2018-05-17T09:22:03Z</time>
      </trkpt>
      <trkpt lat="43.0545" lon="0.98812">
        <ele>314.4</ele>
        <time>2018-05-17T09:22:49Z</time>
      </trkpt>
      <trkpt lat="43.05306" lon="0.98969">
        <ele>314.7</ele>
        <time>2018-05-17T09:23:22Z</time>
      </trkpt>
      <trkpt lat="43.05242" lon="0.99203">
        <ele>315.8</ele>
        <time>2018-05-17T09:23:55Z</time>
      </trkpt>
      <trkpt lat="43.05121" lon="0.99387">
        <ele>315.3</ele>
        <time>2018-05-17T09:24:32Z</time>
      </trkpt>
      <trkpt lat="43.0494" lon="0.99431">
        <ele>316.4</ele>
        <time>2018-05-17T09:25:04Z</time>
      </trkpt>
      <trkpt lat="43.0477" lon="0.99524">
        <ele>310</ele>
        <time>2018-05-17T09:25:32Z</time>
      </trkpt>
      <trkpt lat="43.04592" lon="0.99573">
        <ele>314.6</ele>
        <time>2018-05-17T09:26:05Z</time>
      </trkpt>
      <trkpt lat="43.04412" lon="0.99583">
        <ele>317.1</ele>
        <time>2018-05-17T09:26:37Z</time>
      </trkpt>
      <trkpt lat="43.04234" lon="0.99531">
        <ele>322.5</ele>
        <time>2018-05-17T09:27:11Z</time>
      </trkpt>
      <trkpt lat="43.04058" lon="0.9959">
        <ele>317</ele>
        <time>2018-05-17T09:27:52Z</time>
      </trkpt>
      <trkpt lat="43.03972" lon="0.9981">
        <ele>318.1</ele>
        <time>2018-05-17T09:28:45Z</time>
      </trkpt>
      <trkpt lat="43.03892" lon="1.00035">
        <ele>319.5</ele>
        <time>2018-05-17T09:29:14Z</time>
      </trkpt>
      <trkpt lat="43.03829" lon="1.0027">
        <ele>321.2</ele>
        <time>2018-05-17T09:29:47Z</time>
      </trkpt>
      <trkpt lat="43.03781" lon="1.00511">
        <ele>324.6</ele>
        <time>2018-05-17T09:30:20Z</time>
      </trkpt>
      <trkpt lat="43.03696" lon="1.00735">
        <ele>323.1</ele>
        <time>2018-05-17T09:30:51Z</time>
      </trkpt>
      <trkpt lat="43.03736" lon="1.00979">
        <ele>324.6</ele>
        <time>2018-05-17T09:31:28Z</time>
      </trkpt>
      <trkpt lat="43.03763" lon="1.01222">
        <ele>326.2</ele>
        <time>2018-05-17T09:32:10Z</time>
      </trkpt>
      <trkpt lat="43.03761" lon="1.01473">
        <ele>327.1</ele>
        <time>2018-05-17T09:32:51Z</time>
      </trkpt>
      <trkpt lat="43.03822" lon="1.01711">
        <ele>329.5</ele>
        <time>2018-05-17T09:33:24Z</time>
      </trkpt>
      <trkpt lat="43.03894" lon="1.01944">
        <ele>327.7</ele>
        <time>2018-05-17T09:33:54Z</time>
      </trkpt>
      <trkpt lat="43.03982" lon="1.02161">
        <ele>328.1</ele>
        <time>2018-05-17T09:34:25Z</time>
      </trkpt>
      <trkpt lat="43.04072" lon="1.02378">
        <ele>329.1</ele>
        <time>2018-05-17T09:35:02Z</time>
      </trkpt>
      <trkpt lat="43.04082" lon="1.02625">
        <ele>334</ele>
        <time>2018-05-17T09:35:43Z</time>
      </trkpt>
      <trkpt lat="43.04044" lon="1.02874">
        <ele>336.9</ele>
        <time>2018-05-17T09:36:15Z</time>
      </trkpt>
      <trkpt lat="43.03985" lon="1.03107">
        <ele>348.8</ele>
        <time>2018-05-17T09:36:49Z</time>
      </trkpt>
      <trkpt lat="43.03926" lon="1.03345">
        <ele>339.9</ele>
        <time>2018-05-17T09:38:26Z</time>
      </trkpt>
      <trkpt lat="43.03888" lon="1.03589">
        <ele>340.9</ele>
        <time>2018-05-17T09:38:58Z</time>
      </trkpt>
      <trkpt lat="43.03908" lon="1.03838">
        <ele>342.1</ele>
        <time>2018-05-17T09:39:33Z</time>
      </trkpt>
      <trkpt lat="43.0398" lon="1.04067">
        <ele>345.5</ele>
        <time>2018-05-17T09:40:08Z</time>
      </trkpt>
      <trkpt lat="43.03975" lon="1.04319">
        <ele>343.1</ele>
        <time>2018-05-17T09:41:27Z</time>
      </trkpt>
      <trkpt lat="43.03978" lon="1.04565">
        <ele>335.5</ele>
        <time>2018-05-17T09:42:03Z</time>
      </trkpt>
      <trkpt lat="43.03981" lon="1.04814">
        <ele>333.5</ele>
        <time>2018-05-17T09:42:39Z</time>
      </trkpt>
      <trkpt lat="43.03983" lon="1.05066">
        <ele>338</ele>
        <time>2018-05-17T09:43:15Z</time>
      </trkpt>
      <trkpt lat="43.04006" lon="1.05311">
        <ele>338</ele>
        <time>2018-05-17T09:43:49Z</time>
      </trkpt>
      <trkpt lat="43.04017" lon="1.05562">
        <ele>335.2</ele>
        <time>2018-05-17T09:44:25Z</time>
      </trkpt>
      <trkpt lat="43.04086" lon="1.05791">
        <ele>335.3</ele>
        <time>2018-05-17T09:45:02Z</time>
      </trkpt>
      <trkpt lat="43.04256" lon="1.0588">
        <ele>342.7</ele>
        <time>2018-05-17T09:45:40Z</time>
      </trkpt>
      <trkpt lat="43.0436" lon="1.06084">
        <ele>352</ele>
        <time>2018-05-17T09:46:27Z</time>
      </trkpt>
      <trkpt lat="43.04339" lon="1.0633">
        <ele>349.3</ele>
        <time>2018-05-17T09:47:12Z</time>
      </trkpt>
      <trkpt lat="43.04326" lon="1.06581">
        <ele>347.6</ele>
        <time>2018-05-17T09:47:52Z</time>
      </trkpt>
      <trkpt lat="43.0429" lon="1.06825">
        <ele>348.1</ele>
        <time>2018-05-17T09:48:33Z</time>
      </trkpt>
      <trkpt lat="43.04223" lon="1.07054">
        <ele>351.8</ele>
        <time>2018-05-17T09:49:32Z</time>
      </trkpt>
      <trkpt lat="43.04151" lon="1.07282">
        <ele>351.1</ele>
        <time>2018-05-17T09:50:28Z</time>
      </trkpt>
      <trkpt lat="43.04028" lon="1.07464">
        <ele>367</ele>
        <time>2018-05-17T09:51:45Z</time>
      </trkpt>
      <trkpt lat="43.04027" lon="1.0771">
        <ele>388.3</ele>
        <time>2018-05-17T09:53:08Z</time>
      </trkpt>
      <trkpt lat="43.04064" lon="1.07955">
        <ele>397.3</ele>
        <time>2018-05-17T09:55:37Z</time>
      </trkpt>
      <trkpt lat="43.04134" lon="1.08182">
        <ele>386.8</ele>
        <time>2018-05-17T09:56:29Z</time>
      </trkpt>
      <trkpt lat="43.0407" lon="1.0842">
        <ele>391.3</ele>
        <time>2018-05-17T09:57:15Z</time>
      </trkpt>
      <trkpt lat="43.04049" lon="1.08671">
        <ele>382</ele>
        <time>2018-05-17T09:57:37Z</time>
      </trkpt>
      <trkpt lat="43.03925" lon="1.08852">
        <ele>366</ele>
        <time>2018-05-17T09:58:03Z</time>
      </trkpt>
      <trkpt lat="43.03932" lon="1.091">
        <ele>334</ele>
        <time>2018-05-17T09:59:02Z</time>
      </trkpt>
      <trkpt lat="43.03854" lon="1.09326">
        <ele>334</ele>
        <time>2018-05-17T09:59:57Z</time>
      </trkpt>
      <trkpt lat="43.03822" lon="1.09572">
        <ele>346.6</ele>
        <time>2018-05-17T10:00:35Z</time>
      </trkpt>
      <trkpt lat="43.03751" lon="1.09798">
        <ele>351.8</ele>
        <time>2018-05-17T10:09:01Z</time>
      </trkpt>
      <trkpt lat="43.03702" lon="1.10037">
        <ele>356.4</ele>
        <time>2018-05-17T10:09:40Z</time>
      </trkpt>
      <trkpt lat="43.036" lon="1.10241">
        <ele>363.5</ele>
        <time>2018-05-17T10:10:26Z</time>
      </trkpt>
      <trkpt lat="43.03523" lon="1.10466">
        <ele>369.7</ele>
        <time>2018-05-17T10:10:56Z</time>
      </trkpt>
      <trkpt lat="43.03404" lon="1.10654">
        <ele>372.6</ele>
        <time>2018-05-17T10:11:24Z</time>
      </trkpt>
      <trkpt lat="43.03259" lon="1.10807">
        <ele>370.7</ele>
        <time>2018-05-17T10:11:53Z</time>
      </trkpt>
      <trkpt lat="43.03098" lon="1.10922">
        <ele>365.9</ele>
        <time>2018-05-17T10:12:23Z</time>
      </trkpt>
      <trkpt lat="43.02935" lon="1.11039">
        <ele>363.1</ele>
        <time>2018-05-17T10:12:55Z</time>
      </trkpt>
      <trkpt lat="43.02805" lon="1.1121">
        <ele>360.2</ele>
        <time>2018-05-17T10:13:27Z</time>
      </trkpt>
      <trkpt lat="43.02663" lon="1.11366">
        <ele>355.5</ele>
        <time>2018-05-17T10:14:10Z</time>
      </trkpt>
      <trkpt lat="43.02503" lon="1.11485">
        <ele>353.7</ele>
        <time>2018-05-17T10:14:48Z</time>
      </trkpt>
      <trkpt lat="43.02345" lon="1.11604">
        <ele>355</ele>
        <time>2018-05-17T10:15:26Z</time>
      </trkpt>
      <trkpt lat="43.02187" lon="1.11722">
        <ele>353.7</ele>
        <time>2018-05-17T10:16:05Z</time>
      </trkpt>
      <trkpt lat="43.02027" lon="1.11836">
        <ele>356.7</ele>
        <time>2018-05-17T10:16:37Z</time>
      </trkpt>
      <trkpt lat="43.01875" lon="1.11969">
        <ele>357.8</ele>
        <time>2018-05-17T10:17:16Z</time>
      </trkpt>
      <trkpt lat="43.01723" lon="1.12103">
        <ele>366.9</ele>
        <time>2018-05-17T10:17:58Z</time>
      </trkpt>
      <trkpt lat="43.01568" lon="1.12234">
        <ele>370.1</ele>
        <time>2018-05-17T10:18:33Z</time>
      </trkpt>
      <trkpt lat="43.01418" lon="1.12379">
        <ele>365.6</ele>
        <time>2018-05-17T10:19:09Z</time>
      </trkpt>
      <trkpt lat="43.01272" lon="1.12525">
        <ele>367.7</ele>
        <time>2018-05-17T10:19:51Z</time>
      </trkpt>
      <trkpt lat="43.0113" lon="1.12685">
        <ele>367.5</ele>
        <time>2018-05-17T10:20:28Z</time>
      </trkpt>
      <trkpt lat="43.00974" lon="1.1282">
        <ele>373.6</ele>
        <time>2018-05-17T10:21:02Z</time>
      </trkpt>
      <trkpt lat="43.00816" lon="1.12949">
        <ele>377.6</ele>
        <time>2018-05-17T10:21:36Z</time>
      </trkpt>
      <trkpt lat="43.0067" lon="1.13093">
        <ele>372</ele>
        <time>2018-05-17T10:22:09Z</time>
      </trkpt>
      <trkpt lat="43.00529" lon="1.13253">
        <ele>374</ele>
        <time>2018-05-17T10:22:44Z</time>
      </trkpt>
      <trkpt lat="43.00378" lon="1.13391">
        <ele>378.3</ele>
        <time>2018-05-17T10:23:26Z</time>
      </trkpt>
      <trkpt lat="43.00201" lon="1.13456">
        <ele>383.8</ele>
        <time>2018-05-17T10:23:58Z</time>
      </trkpt>
      <trkpt lat="43.00033" lon="1.13542">
        <ele>391.3</ele>
        <time>2018-05-17T10:24:45Z</time>
      </trkpt>
      <trkpt lat="42.9996" lon="1.13767">
        <ele>421.7</ele>
        <time>2018-05-17T10:26:59Z</time>
      </trkpt>
      <trkpt lat="42.99794" lon="1.13865">
        <ele>439.3</ele>
        <time>2018-05-17T10:27:50Z</time>
      </trkpt>
      <trkpt lat="42.9961" lon="1.13913">
        <ele>447.2</ele>
        <time>2018-05-17T10:28:22Z</time>
      </trkpt>
      <trkpt lat="42.99451" lon="1.14049">
        <ele>446.8</ele>
        <time>2018-05-17T10:28:42Z</time>
      </trkpt>
      <trkpt lat="42.99269" lon="1.14085">
        <ele>438.9</ele>
        <time>2018-05-17T10:29:02Z</time>
      </trkpt>
      <trkpt lat="42.99157" lon="1.14283">
        <ele>400.5</ele>
        <time>2018-05-17T10:29:25Z</time>
      </trkpt>
      <trkpt lat="42.98982" lon="1.14359">
        <ele>377.4</ele>
        <time>2018-05-17T10:30:00Z</time>
      </trkpt>
      <trkpt lat="42.98802" lon="1.14344">
        <ele>364.6</ele>
        <time>2018-05-17T10:30:38Z</time>
      </trkpt>
      <trkpt lat="42.98623" lon="1.1438">
        <ele>355.6</ele>
        <time>2018-05-17T10:31:44Z</time>
      </trkpt>
      <trkpt lat="42.9848" lon="1.1453">
        <ele>360.3</ele>
        <time>2018-05-17T10:32:32Z</time>
      </trkpt>
      <trkpt lat="42.98442" lon="1.14567">
        <ele>369.1</ele>
        <time>2018-05-17T10:36:42Z</time>
      </trkpt>
      <trkpt lat="42.98681" lon="1.14476">
        <ele>398.3</ele>
        <time>2018-05-17T12:21:03Z</time>
      </trkpt>
      <trkpt lat="42.98777" lon="1.1469">
        <ele>392.2</ele>
        <time>2018-05-17T12:21:53Z</time>
      </trkpt>
      <trkpt lat="42.98871" lon="1.14901">
        <ele>386.3</ele>
        <time>2018-05-17T12:22:36Z</time>
      </trkpt>
      <trkpt lat="42.98972" lon="1.15116">
        <ele>384.4</ele>
        <time>2018-05-17T12:23:09Z</time>
      </trkpt>
      <trkpt lat="42.99067" lon="1.15329">
        <ele>381.8</ele>
        <time>2018-05-17T12:23:43Z</time>
      </trkpt>
      <trkpt lat="42.99193" lon="1.15508">
        <ele>377.6</ele>
        <time>2018-05-17T12:24:19Z</time>
      </trkpt>
      <trkpt lat="42.99278" lon="1.15727">
        <ele>385.9</ele>
        <time>2018-05-17T12:25:19Z</time>
      </trkpt>
      <trkpt lat="42.99258" lon="1.15974">
        <ele>391.7</ele>
        <time>2018-05-17T12:25:48Z</time>
      </trkpt>
      <trkpt lat="42.99263" lon="1.1622">
        <ele>396.3</ele>
        <time>2018-05-17T12:26:27Z</time>
      </trkpt>
      <trkpt lat="42.99291" lon="1.16466">
        <ele>398.5</ele>
        <time>2018-05-17T12:27:13Z</time>
      </trkpt>
      <trkpt lat="42.99396" lon="1.16666">
        <ele>394.7</ele>
        <time>2018-05-17T12:27:51Z</time>
      </trkpt>
      <trkpt lat="42.99479" lon="1.16888">
        <ele>397.5</ele>
        <time>2018-05-17T12:28:21Z</time>
      </trkpt>
      <trkpt lat="42.99387" lon="1.17106">
        <ele>396.6</ele>
        <time>2018-05-17T12:28:53Z</time>
      </trkpt>
      <trkpt lat="42.993" lon="1.17322">
        <ele>394</ele>
        <time>2018-05-17T12:29:23Z</time>
      </trkpt>
      <trkpt lat="42.99368" lon="1.17555">
        <ele>395.2</ele>
        <time>2018-05-17T12:29:53Z</time>
      </trkpt>
      <trkpt lat="42.99449" lon="1.17779">
        <ele>395</ele>
        <time>2018-05-17T12:30:25Z</time>
      </trkpt>
      <trkpt lat="42.99388" lon="1.18016">
        <ele>401.5</ele>
        <time>2018-05-17T12:30:58Z</time>
      </trkpt>
      <trkpt lat="42.99452" lon="1.18248">
        <ele>404.6</ele>
        <time>2018-05-17T12:31:32Z</time>
      </trkpt>
      <trkpt lat="42.99497" lon="1.18492">
        <ele>404.7</ele>
        <time>2018-05-17T12:32:06Z</time>
      </trkpt>
      <trkpt lat="42.99592" lon="1.18705">
        <ele>393.9</ele>
        <time>2018-05-17T12:32:41Z</time>
      </trkpt>
      <trkpt lat="42.99601" lon="1.18956">
        <ele>405.3</ele>
        <time>2018-05-17T12:33:15Z</time>
      </trkpt>
      <trkpt lat="42.99546" lon="1.19195">
        <ele>407.8</ele>
        <time>2018-05-17T12:33:50Z</time>
      </trkpt>
      <trkpt lat="42.99535" lon="1.19442">
        <ele>402.8</ele>
        <time>2018-05-17T12:34:27Z</time>
      </trkpt>
      <trkpt lat="42.99572" lon="1.19689">
        <ele>401.9</ele>
        <time>2018-05-17T12:35:01Z</time>
      </trkpt>
      <trkpt lat="42.99601" lon="1.19933">
        <ele>400.3</ele>
        <time>2018-05-17T12:35:32Z</time>
      </trkpt>
      <trkpt lat="42.99564" lon="1.2018">
        <ele>404.7</ele>
        <time>2018-05-17T12:36:07Z</time>
      </trkpt>
      <trkpt lat="42.99514" lon="1.20419">
        <ele>410.8</ele>
        <time>2018-05-17T12:36:45Z</time>
      </trkpt>
      <trkpt lat="42.99452" lon="1.20656">
        <ele>417.1</ele>
        <time>2018-05-17T12:37:26Z</time>
      </trkpt>
      <trkpt lat="42.99401" lon="1.20899">
        <ele>416.1</ele>
        <time>2018-05-17T12:38:06Z</time>
      </trkpt>
      <trkpt lat="42.99379" lon="1.2115">
        <ele>416.3</ele>
        <time>2018-05-17T12:38:41Z</time>
      </trkpt>
      <trkpt lat="42.9936" lon="1.21397">
        <ele>417.7</ele>
        <time>2018-05-17T12:39:12Z</time>
      </trkpt>
      <trkpt lat="42.9933" lon="1.21646">
        <ele>418.1</ele>
        <time>2018-05-17T12:39:44Z</time>
      </trkpt>
      <trkpt lat="42.99327" lon="1.21895">
        <ele>421.2</ele>
        <time>2018-05-17T12:40:18Z</time>
      </trkpt>
      <trkpt lat="42.99287" lon="1.2214">
        <ele>417.3</ele>
        <time>2018-05-17T12:40:59Z</time>
      </trkpt>
      <trkpt lat="42.99129" lon="1.2226">
        <ele>422.8</ele>
        <time>2018-05-17T12:47:10Z</time>
      </trkpt>
      <trkpt lat="42.99258" lon="1.22441">
        <ele>422.7</ele>
        <time>2018-05-17T12:47:51Z</time>
      </trkpt>
      <trkpt lat="42.99436" lon="1.22503">
        <ele>422.6</ele>
        <time>2018-05-17T12:48:35Z</time>
      </trkpt>
      <trkpt lat="42.9958" lon="1.22656">
        <ele>422.3</ele>
        <time>2018-05-17T12:49:25Z</time>
      </trkpt>
      <trkpt lat="42.99697" lon="1.22849">
        <ele>420.9</ele>
        <time>2018-05-17T12:50:12Z</time>
      </trkpt>
      <trkpt lat="42.99771" lon="1.23075">
        <ele>417.1</ele>
        <time>2018-05-17T12:50:59Z</time>
      </trkpt>
      <trkpt lat="42.9974" lon="1.2332">
        <ele>426.3</ele>
        <time>2018-05-17T12:51:46Z</time>
      </trkpt>
      <trkpt lat="42.99718" lon="1.23567">
        <ele>432.6</ele>
        <time>2018-05-17T12:53:29Z</time>
      </trkpt>
      <trkpt lat="42.9962" lon="1.23776">
        <ele>434.7</ele>
        <time>2018-05-17T12:54:21Z</time>
      </trkpt>
      <trkpt lat="42.9956" lon="1.24009">
        <ele>434.7</ele>
        <time>2018-05-17T12:55:00Z</time>
      </trkpt>
      <trkpt lat="42.99465" lon="1.24221">
        <ele>438</ele>
        <time>2018-05-17T12:55:46Z</time>
      </trkpt>
      <trkpt lat="42.99386" lon="1.24443">
        <ele>443.6</ele>
        <time>2018-05-17T12:56:34Z</time>
      </trkpt>
      <trkpt lat="42.99357" lon="1.2469">
        <ele>444.7</ele>
        <time>2018-05-17T12:57:17Z</time>
      </trkpt>
      <trkpt lat="42.99291" lon="1.24925">
        <ele>445.3</ele>
        <time>2018-05-17T12:58:01Z</time>
      </trkpt>
      <trkpt lat="42.99163" lon="1.25103">
        <ele>448.8</ele>
        <time>2018-05-17T12:58:44Z</time>
      </trkpt>
      <trkpt lat="42.99086" lon="1.25329">
        <ele>450.6</ele>
        <time>2018-05-17T12:59:35Z</time>
      </trkpt>
      <trkpt lat="42.99032" lon="1.25564">
        <ele>454.1</ele>
        <time>2018-05-17T13:00:20Z</time>
      </trkpt>
      <trkpt lat="42.98979" lon="1.25801">
        <ele>455.2</ele>
        <time>2018-05-17T13:01:08Z</time>
      </trkpt>
      <trkpt lat="42.98938" lon="1.26044">
        <ele>456.9</ele>
        <time>2018-05-17T13:01:59Z</time>
      </trkpt>
      <trkpt lat="42.98926" lon="1.26291">
        <ele>461.1</ele>
        <time>2018-05-17T13:02:45Z</time>
      </trkpt>
      <trkpt lat="42.98933" lon="1.26539">
        <ele>465</ele>
        <time>2018-05-17T13:03:35Z</time>
      </trkpt>
      <trkpt lat="42.98911" lon="1.26783">
        <ele>465</ele>
        <time>2018-05-17T13:04:24Z</time>
      </trkpt>
      <trkpt lat="42.9891" lon="1.27029">
        <ele>460.7</ele>
        <time>2018-05-17T13:05:15Z</time>
      </trkpt>
      <trkpt lat="42.98937" lon="1.27275">
        <ele>462.4</ele>
        <time>2018-05-17T13:06:01Z</time>
      </trkpt>
      <trkpt lat="42.9899" lon="1.27511">
        <ele>472.2</ele>
        <time>2018-05-17T13:06:47Z</time>
      </trkpt>
      <trkpt lat="42.98967" lon="1.27755">
        <ele>476</ele>
        <time>2018-05-17T13:07:42Z</time>
      </trkpt>
      <trkpt lat="42.98924" lon="1.27998">
        <ele>475.1</ele>
        <time>2018-05-17T13:08:19Z</time>
      </trkpt>
      <trkpt lat="42.98918" lon="1.28245">
        <ele>481.9</ele>
        <time>2018-05-17T13:08:58Z</time>
      </trkpt>
      <trkpt lat="42.98935" lon="1.2849">
        <ele>483.5</ele>
        <time>2018-05-17T13:09:38Z</time>
      </trkpt>
      <trkpt lat="42.99365" lon="1.29582">
        <ele>487.8</ele>
        <time>2018-05-17T13:13:42Z</time>
      </trkpt>
      <trkpt lat="42.99393" lon="1.29825">
        <ele>475.4</ele>
        <time>2018-05-17T13:14:17Z</time>
      </trkpt>
      <trkpt lat="42.99436" lon="1.30066">
        <ele>463.9</ele>
        <time>2018-05-17T13:14:45Z</time>
      </trkpt>
      <trkpt lat="42.99466" lon="1.30315">
        <ele>457.6</ele>
        <time>2018-05-17T13:15:19Z</time>
      </trkpt>
      <trkpt lat="42.99441" lon="1.30564">
        <ele>456.6</ele>
        <time>2018-05-17T13:15:48Z</time>
      </trkpt>
      <trkpt lat="42.99321" lon="1.31149">
        <ele>441.5</ele>
        <time>2018-05-17T13:17:22Z</time>
      </trkpt>
      <trkpt lat="42.9935" lon="1.31399">
        <ele>445.1</ele>
        <time>2018-05-17T13:17:51Z</time>
      </trkpt>
      <trkpt lat="42.99432" lon="1.31621">
        <ele>439</ele>
        <time>2018-05-17T13:18:21Z</time>
      </trkpt>
      <trkpt lat="42.99549" lon="1.31818">
        <ele>436.8</ele>
        <time>2018-05-17T13:18:59Z</time>
      </trkpt>
      <trkpt lat="42.99652" lon="1.32029">
        <ele>436</ele>
        <time>2018-05-17T13:19:25Z</time>
      </trkpt>
      <trkpt lat="42.99717" lon="1.32261">
        <ele>431.9</ele>
        <time>2018-05-17T13:19:55Z</time>
      </trkpt>
      <trkpt lat="42.99765" lon="1.32508">
        <ele>430.3</ele>
        <time>2018-05-17T13:20:20Z</time>
      </trkpt>
      <trkpt lat="42.99839" lon="1.32734">
        <ele>429</ele>
        <time>2018-05-17T13:20:43Z</time>
      </trkpt>
      <trkpt lat="42.99938" lon="1.32941">
        <ele>429.6</ele>
        <time>2018-05-17T13:21:09Z</time>
      </trkpt>
      <trkpt lat="43.00069" lon="1.33127">
        <ele>431.4</ele>
        <time>2018-05-17T13:21:33Z</time>
      </trkpt>
      <trkpt lat="43.00176" lon="1.33327">
        <ele>428.1</ele>
        <time>2018-05-17T13:21:59Z</time>
      </trkpt>
      <trkpt lat="43.00241" lon="1.33562">
        <ele>423.1</ele>
        <time>2018-05-17T13:22:24Z</time>
      </trkpt>
      <trkpt lat="43.00279" lon="1.33811">
        <ele>420.4</ele>
        <time>2018-05-17T13:22:56Z</time>
      </trkpt>
      <trkpt lat="43.00332" lon="1.3405">
        <ele>417.5</ele>
        <time>2018-05-17T13:23:21Z</time>
      </trkpt>
      <trkpt lat="43.00362" lon="1.34295">
        <ele>415.7</ele>
        <time>2018-05-17T13:23:47Z</time>
      </trkpt>
      <trkpt lat="43.00394" lon="1.34543">
        <ele>414</ele>
        <time>2018-05-17T13:24:20Z</time>
      </trkpt>
      <trkpt lat="43.00432" lon="1.34791">
        <ele>415.8</ele>
        <time>2018-05-17T13:24:54Z</time>
      </trkpt>
      <trkpt lat="43.00444" lon="1.35039">
        <ele>417.8</ele>
        <time>2018-05-17T13:25:19Z</time>
      </trkpt>
      <trkpt lat="43.00504" lon="1.35278">
        <ele>414.9</ele>
        <time>2018-05-17T13:25:44Z</time>
      </trkpt>
      <trkpt lat="43.00571" lon="1.35517">
        <ele>408.2</ele>
        <time>2018-05-17T13:26:09Z</time>
      </trkpt>
      <trkpt lat="43.00627" lon="1.35761">
        <ele>397.9</ele>
        <time>2018-05-17T13:26:33Z</time>
      </trkpt>
      <trkpt lat="43.00681" lon="1.36002">
        <ele>392.7</ele>
        <time>2018-05-17T13:26:57Z</time>
      </trkpt>
      <trkpt lat="43.00771" lon="1.36218">
        <ele>388.1</ele>
        <time>2018-05-17T13:27:21Z</time>
      </trkpt>
      <trkpt lat="43.00895" lon="1.36402">
        <ele>383.9</ele>
        <time>2018-05-17T13:27:46Z</time>
      </trkpt>
      <trkpt lat="43.01019" lon="1.36585">
        <ele>381.1</ele>
        <time>2018-05-17T13:28:12Z</time>
      </trkpt>
      <trkpt lat="43.01154" lon="1.36748">
        <ele>378.6</ele>
        <time>2018-05-17T13:28:50Z</time>
      </trkpt>
      <trkpt lat="43.0133" lon="1.36813">
        <ele>376.2</ele>
        <time>2018-05-17T13:29:17Z</time>
      </trkpt>
      <trkpt lat="43.01501" lon="1.36913">
        <ele>373.2</ele>
        <time>2018-05-17T13:29:42Z</time>
      </trkpt>
      <trkpt lat="43.01644" lon="1.37063">
        <ele>371.9</ele>
        <time>2018-05-17T13:30:10Z</time>
      </trkpt>
      <trkpt lat="43.01721" lon="1.37287">
        <ele>375</ele>
        <time>2018-05-17T13:31:42Z</time>
      </trkpt>
      <trkpt lat="43.01738" lon="1.37536">
        <ele>375</ele>
        <time>2018-05-17T13:32:21Z</time>
      </trkpt>
      <trkpt lat="43.01732" lon="1.37782">
        <ele>356.4</ele>
        <time>2018-05-17T13:36:47Z</time>
      </trkpt>
      <trkpt lat="43.0175" lon="1.38033">
        <ele>357.3</ele>
        <time>2018-05-17T13:37:17Z</time>
      </trkpt>
      <trkpt lat="43.01746" lon="1.38279">
        <ele>360.1</ele>
        <time>2018-05-17T13:37:53Z</time>
      </trkpt>
      <trkpt lat="43.01712" lon="1.38525">
        <ele>363.5</ele>
        <time>2018-05-17T13:38:33Z</time>
      </trkpt>
      <trkpt lat="43.0172" lon="1.38777">
        <ele>366.4</ele>
        <time>2018-05-17T13:39:14Z</time>
      </trkpt>
      <trkpt lat="43.01781" lon="1.3901">
        <ele>365.1</ele>
        <time>2018-05-17T13:39:51Z</time>
      </trkpt>
      <trkpt lat="43.01781" lon="1.39259">
        <ele>362.4</ele>
        <time>2018-05-17T13:40:33Z</time>
      </trkpt>
      <trkpt lat="43.01754" lon="1.39505">
        <ele>364.7</ele>
        <time>2018-05-17T13:41:18Z</time>
      </trkpt>
      <trkpt lat="43.01739" lon="1.39755">
        <ele>367.7</ele>
        <time>2018-05-17T13:42:03Z</time>
      </trkpt>
      <trkpt lat="43.01723" lon="1.40003">
        <ele>368</ele>
        <time>2018-05-17T13:42:48Z</time>
      </trkpt>
      <trkpt lat="43.01706" lon="1.40252">
        <ele>370.1</ele>
        <time>2018-05-17T13:43:33Z</time>
      </trkpt>
      <trkpt lat="43.01715" lon="1.405">
        <ele>372.1</ele>
        <time>2018-05-17T13:46:04Z</time>
      </trkpt>
      <trkpt lat="43.01811" lon="1.40711">
        <ele>376.9</ele>
        <time>2018-05-17T13:46:40Z</time>
      </trkpt>
      <trkpt lat="43.01893" lon="1.40934">
        <ele>383.1</ele>
        <time>2018-05-17T13:47:18Z</time>
      </trkpt>
      <trkpt lat="43.01873" lon="1.41181">
        <ele>390.6</ele>
        <time>2018-05-17T13:48:04Z</time>
      </trkpt>
      <trkpt lat="43.01891" lon="1.41426">
        <ele>398.8</ele>
        <time>2018-05-17T13:48:58Z</time>
      </trkpt>
      <trkpt lat="43.0199" lon="1.41634">
        <ele>406.7</ele>
        <time>2018-05-17T13:49:45Z</time>
      </trkpt>
      <trkpt lat="43.02018" lon="1.41878">
        <ele>413.3</ele>
        <time>2018-05-17T13:50:34Z</time>
      </trkpt>
      <trkpt lat="43.01958" lon="1.4211">
        <ele>414.3</ele>
        <time>2018-05-17T13:51:24Z</time>
      </trkpt>
      <trkpt lat="43.01823" lon="1.42277">
        <ele>421.6</ele>
        <time>2018-05-17T13:52:19Z</time>
      </trkpt>
      <trkpt lat="43.01694" lon="1.42456">
        <ele>433.1</ele>
        <time>2018-05-17T13:53:07Z</time>
      </trkpt>
      <trkpt lat="43.01651" lon="1.42699">
        <ele>443.6</ele>
        <time>2018-05-17T13:53:52Z</time>
      </trkpt>
      <trkpt lat="43.01546" lon="1.42899">
        <ele>451.3</ele>
        <time>2018-05-17T13:54:38Z</time>
      </trkpt>
      <trkpt lat="43.01451" lon="1.43115">
        <ele>463.1</ele>
        <time>2018-05-17T13:55:17Z</time>
      </trkpt>
      <trkpt lat="43.01383" lon="1.43348">
        <ele>473.7</ele>
        <time>2018-05-17T13:55:52Z</time>
      </trkpt>
      <trkpt lat="43.01342" lon="1.43594">
        <ele>480.8</ele>
        <time>2018-05-17T13:56:33Z</time>
      </trkpt>
      <trkpt lat="43.01334" lon="1.43843">
        <ele>484.5</ele>
        <time>2018-05-17T13:57:20Z</time>
      </trkpt>
      <trkpt lat="43.01295" lon="1.44086">
        <ele>471.8</ele>
        <time>2018-05-17T13:58:15Z</time>
      </trkpt>
      <trkpt lat="43.01273" lon="1.44331">
        <ele>471.3</ele>
        <time>2018-05-17T13:59:04Z</time>
      </trkpt>
      <trkpt lat="43.01298" lon="1.44576">
        <ele>467.8</ele>
        <time>2018-05-17T13:59:55Z</time>
      </trkpt>
      <trkpt lat="43.01325" lon="1.44822">
        <ele>467.1</ele>
        <time>2018-05-17T14:00:44Z</time>
      </trkpt>
      <trkpt lat="43.01351" lon="1.45067">
        <ele>448.9</ele>
        <time>2018-05-17T14:01:39Z</time>
      </trkpt>
      <trkpt lat="43.01346" lon="1.45317">
        <ele>431</ele>
        <time>2018-05-17T14:02:32Z</time>
      </trkpt>
      <trkpt lat="43.01244" lon="1.45521">
        <ele>417</ele>
        <time>2018-05-17T14:03:26Z</time>
      </trkpt>
      <trkpt lat="43.01123" lon="1.45757">
        <ele>407.7</ele>
        <time>2018-05-17T14:04:29Z</time>
      </trkpt>
      <trkpt lat="43.01118" lon="1.46006">
        <ele>451.4</ele>
        <time>2018-05-17T14:05:19Z</time>
      </trkpt>
      <trkpt lat="43.01123" lon="1.46252">
        <ele>445.9</ele>
        <time>2018-05-17T14:06:14Z</time>
      </trkpt>
      <trkpt lat="43.01096" lon="1.46499">
        <ele>438.3</ele>
        <time>2018-05-17T14:07:10Z</time>
      </trkpt>
      <trkpt lat="43.0103" lon="1.4673">
        <ele>423.6</ele>
        <time>2018-05-17T14:08:08Z</time>
      </trkpt>
      <trkpt lat="43.00985" lon="1.46972">
        <ele>416.4</ele>
        <time>2018-05-17T14:08:59Z</time>
      </trkpt>
      <trkpt lat="43.00983" lon="1.47223">
        <ele>407.5</ele>
        <time>2018-05-17T14:09:53Z</time>
      </trkpt>
      <trkpt lat="43.01098" lon="1.47416">
        <ele>406.9</ele>
        <time>2018-05-17T14:10:40Z</time>
      </trkpt>
      <trkpt lat="43.0123" lon="1.47587">
        <ele>404.5</ele>
        <time>2018-05-17T14:11:32Z</time>
      </trkpt>
      <trkpt lat="43.01275" lon="1.4783">
        <ele>402.8</ele>
        <time>2018-05-17T14:12:24Z</time>
      </trkpt>
      <trkpt lat="43.01275" lon="1.48077">
        <ele>400</ele>
        <time>2018-05-17T14:13:12Z</time>
      </trkpt>
      <trkpt lat="43.0116" lon="1.4827">
        <ele>402.9</ele>
        <time>2018-05-17T14:14:02Z</time>
      </trkpt>
      <trkpt lat="43.01053" lon="1.48473">
        <ele>408.6</ele>
        <time>2018-05-17T14:14:52Z</time>
      </trkpt>
      <trkpt lat="43.00993" lon="1.48706">
        <ele>415.4</ele>
        <time>2018-05-17T14:15:38Z</time>
      </trkpt>
      <trkpt lat="43.00956" lon="1.48952">
        <ele>426.7</ele>
        <time>2018-05-17T14:16:29Z</time>
      </trkpt>
      <trkpt lat="43.00941" lon="1.49199">
        <ele>435.4</ele>
        <time>2018-05-17T14:17:12Z</time>
      </trkpt>
      <trkpt lat="43.0093" lon="1.49446">
        <ele>442.8</ele>
        <time>2018-05-17T14:17:54Z</time>
      </trkpt>
      <trkpt lat="43.0094" lon="1.49695">
        <ele>454.9</ele>
        <time>2018-05-17T14:18:31Z</time>
      </trkpt>
      <trkpt lat="43.00997" lon="1.49928">
        <ele>470.7</ele>
        <time>2018-05-17T14:19:11Z</time>
      </trkpt>
      <trkpt lat="43.01017" lon="1.50173">
        <ele>483.9</ele>
        <time>2018-05-17T14:20:00Z</time>
      </trkpt>
      <trkpt lat="43.01022" lon="1.50424">
        <ele>492.2</ele>
        <time>2018-05-17T14:20:35Z</time>
      </trkpt>
      <trkpt lat="43.01077" lon="1.50661">
        <ele>500.3</ele>
        <time>2018-05-17T14:21:15Z</time>
      </trkpt>
      <trkpt lat="43.0115" lon="1.50886">
        <ele>497</ele>
        <time>2018-05-17T14:21:55Z</time>
      </trkpt>
      <trkpt lat="43.01171" lon="1.51134">
        <ele>500.6</ele>
        <time>2018-05-17T14:22:38Z</time>
      </trkpt>
      <trkpt lat="43.01137" lon="1.51376">
        <ele>494.5</ele>
        <time>2018-05-17T14:23:25Z</time>
      </trkpt>
      <trkpt lat="43.01092" lon="1.51618">
        <ele>493.7</ele>
        <time>2018-05-17T14:24:40Z</time>
      </trkpt>
      <trkpt lat="43.01091" lon="1.51869">
        <ele>496.7</ele>
        <time>2018-05-17T14:25:23Z</time>
      </trkpt>
      <trkpt lat="43.01133" lon="1.52113">
        <ele>500.5</ele>
        <time>2018-05-17T14:26:04Z</time>
      </trkpt>
      <trkpt lat="43.01192" lon="1.52347">
        <ele>503.6</ele>
        <time>2018-05-17T14:26:42Z</time>
      </trkpt>
      <trkpt lat="43.01225" lon="1.52597">
        <ele>505.7</ele>
        <time>2018-05-17T14:27:12Z</time>
      </trkpt>
      <trkpt lat="43.0128" lon="1.52831">
        <ele>508.4</ele>
        <time>2018-05-17T14:27:38Z</time>
      </trkpt>
      <trkpt lat="43.01374" lon="1.53047">
        <ele>509.5</ele>
        <time>2018-05-17T14:28:05Z</time>
      </trkpt>
      <trkpt lat="43.0144" lon="1.53286">
        <ele>503.2</ele>
        <time>2018-05-17T14:28:30Z</time>
      </trkpt>
      <trkpt lat="43.0145" lon="1.53535">
        <ele>494.4</ele>
        <time>2018-05-17T14:29:00Z</time>
      </trkpt>
      <trkpt lat="43.01395" lon="1.53777">
        <ele>493.2</ele>
        <time>2018-05-17T14:29:46Z</time>
      </trkpt>
      <trkpt lat="43.01333" lon="1.54013">
        <ele>490.6</ele>
        <time>2018-05-17T14:30:25Z</time>
      </trkpt>
      <trkpt lat="43.01264" lon="1.54246">
        <ele>491</ele>
        <time>2018-05-17T14:31:00Z</time>
      </trkpt>
      <trkpt lat="43.0119" lon="1.54475">
        <ele>486.7</ele>
        <time>2018-05-17T14:31:37Z</time>
      </trkpt>
      <trkpt lat="43.01094" lon="1.54689">
        <ele>483.6</ele>
        <time>2018-05-17T14:32:09Z</time>
      </trkpt>
      <trkpt lat="43.01005" lon="1.54906">
        <ele>482.3</ele>
        <time>2018-05-17T14:32:35Z</time>
      </trkpt>
      <trkpt lat="43.00928" lon="1.55137">
        <ele>482.9</ele>
        <time>2018-05-17T14:33:05Z</time>
      </trkpt>
      <trkpt lat="43.0085" lon="1.5536">
        <ele>481.6</ele>
        <time>2018-05-17T14:33:32Z</time>
      </trkpt>
      <trkpt lat="43.00774" lon="1.55591">
        <ele>481.3</ele>
        <time>2018-05-17T14:34:00Z</time>
      </trkpt>
      <trkpt lat="43.00686" lon="1.55808">
        <ele>480.3</ele>
        <time>2018-05-17T14:34:35Z</time>
      </trkpt>
      <trkpt lat="43.00565" lon="1.56001">
        <ele>476.7</ele>
        <time>2018-05-17T14:35:05Z</time>
      </trkpt>
      <trkpt lat="43.00444" lon="1.56197">
        <ele>473.5</ele>
        <time>2018-05-17T14:35:36Z</time>
      </trkpt>
      <trkpt lat="43.00341" lon="1.56404">
        <ele>470.3</ele>
        <time>2018-05-17T14:36:02Z</time>
      </trkpt>
      <trkpt lat="43.00246" lon="1.56621">
        <ele>468</ele>
        <time>2018-05-17T14:36:27Z</time>
      </trkpt>
      <trkpt lat="43.00184" lon="1.56853">
        <ele>465.6</ele>
        <time>2018-05-17T14:36:52Z</time>
      </trkpt>
      <trkpt lat="43.00167" lon="1.57101">
        <ele>456.2</ele>
        <time>2018-05-17T14:37:19Z</time>
      </trkpt>
      <trkpt lat="43.00179" lon="1.57352">
        <ele>451.5</ele>
        <time>2018-05-17T14:37:45Z</time>
      </trkpt>
      <trkpt lat="43.00193" lon="1.57601">
        <ele>449.1</ele>
        <time>2018-05-17T14:38:13Z</time>
      </trkpt>
      <trkpt lat="43.00198" lon="1.57853">
        <ele>444.2</ele>
        <time>2018-05-17T14:38:47Z</time>
      </trkpt>
      <trkpt lat="43.00161" lon="1.58097">
        <ele>442.2</ele>
        <time>2018-05-17T14:39:28Z</time>
      </trkpt>
      <trkpt lat="43.00156" lon="1.58345">
        <ele>442.7</ele>
        <time>2018-05-17T14:40:03Z</time>
      </trkpt>
      <trkpt lat="43.00215" lon="1.58585">
        <ele>445.6</ele>
        <time>2018-05-17T14:40:42Z</time>
      </trkpt>
      <trkpt lat="43.00226" lon="1.58833">
        <ele>447.8</ele>
        <time>2018-05-17T14:41:20Z</time>
      </trkpt>
      <trkpt lat="43.00185" lon="1.59073">
        <ele>448.7</ele>
        <time>2018-05-17T14:41:56Z</time>
      </trkpt>
      <trkpt lat="43.00165" lon="1.59322">
        <ele>454.5</ele>
        <time>2018-05-17T14:42:29Z</time>
      </trkpt>
      <trkpt lat="43.0016" lon="1.59572">
        <ele>456.7</ele>
        <time>2018-05-17T14:43:05Z</time>
      </trkpt>
      <trkpt lat="43.00106" lon="1.59812">
        <ele>456.7</ele>
        <time>2018-05-17T14:43:42Z</time>
      </trkpt>
      <trkpt lat="43.00028" lon="1.60035">
        <ele>454.6</ele>
        <time>2018-05-17T14:44:14Z</time>
      </trkpt>
      <trkpt lat="42.99967" lon="1.6027">
        <ele>452.5</ele>
        <time>2018-05-17T14:44:48Z</time>
      </trkpt>
      <trkpt lat="42.99963" lon="1.6052">
        <ele>453.7</ele>
        <time>2018-05-17T14:45:22Z</time>
      </trkpt>
      <trkpt lat="42.99885" lon="1.60743">
        <ele>448.7</ele>
        <time>2018-05-17T14:45:55Z</time>
      </trkpt>
      <trkpt lat="42.99712" lon="1.60822">
        <ele>397.8</ele>
        <time>2018-05-17T15:05:43Z</time>
      </trkpt>
      <trkpt lat="42.99528" lon="1.60825">
        <ele>396.9</ele>
        <time>2018-05-17T15:06:22Z</time>
      </trkpt>
      <trkpt lat="42.99345" lon="1.60813">
        <ele>396.8</ele>
        <time>2018-05-17T15:07:14Z</time>
      </trkpt>
      <trkpt lat="42.99173" lon="1.60734">
        <ele>403.4</ele>
        <time>2018-05-17T15:07:48Z</time>
      </trkpt>
      <trkpt lat="42.99001" lon="1.60654">
        <ele>406.3</ele>
        <time>2018-05-17T15:08:23Z</time>
      </trkpt>
      <trkpt lat="42.98817" lon="1.60624">
        <ele>406.2</ele>
        <time>2018-05-17T15:09:00Z</time>
      </trkpt>
      <trkpt lat="42.98655" lon="1.60512">
        <ele>405.2</ele>
        <time>2018-05-17T15:09:43Z</time>
      </trkpt>
      <trkpt lat="42.98818" lon="1.60633">
        <ele>418.3</ele>
        <time>2018-05-17T15:14:28Z</time>
      </trkpt>
      <trkpt lat="42.99" lon="1.60665">
        <ele>416.9</ele>
        <time>2018-05-17T15:14:53Z</time>
      </trkpt>
      <trkpt lat="42.99174" lon="1.6073">
        <ele>412.2</ele>
        <time>2018-05-17T15:15:20Z</time>
      </trkpt>
      <trkpt lat="42.99346" lon="1.60821">
        <ele>402.5</ele>
        <time>2018-05-17T15:15:46Z</time>
      </trkpt>
      <trkpt lat="42.99529" lon="1.60851">
        <ele>393.6</ele>
        <time>2018-05-17T15:16:08Z</time>
      </trkpt>
      <trkpt lat="42.99719" lon="1.60876">
        <ele>382.5</ele>
        <time>2018-05-17T15:16:26Z</time>
      </trkpt>
      <trkpt lat="42.99892" lon="1.60956">
        <ele>372.2</ele>
        <time>2018-05-17T15:16:40Z</time>
      </trkpt>
      <trkpt lat="43.0007" lon="1.61026">
        <ele>358.8</ele>
        <time>2018-05-17T15:16:57Z</time>
      </trkpt>
      <trkpt lat="43.00248" lon="1.60991">
        <ele>347</ele>
        <time>2018-05-17T15:17:15Z</time>
      </trkpt>
      <trkpt lat="43.00433" lon="1.60996">
        <ele>340.3</ele>
        <time>2018-05-17T15:17:37Z</time>
      </trkpt>
      <trkpt lat="43.00619" lon="1.60957">
        <ele>351.9</ele>
        <time>2018-05-17T15:18:00Z</time>
      </trkpt>
      <trkpt lat="43.00798" lon="1.60911">
        <ele>356.2</ele>
        <time>2018-05-17T15:18:23Z</time>
      </trkpt>
      <trkpt lat="43.0098" lon="1.60864">
        <ele>355.8</ele>
        <time>2018-05-17T15:18:51Z</time>
      </trkpt>
      <trkpt lat="43.01158" lon="1.60801">
        <ele>359.4</ele>
        <time>2018-05-17T15:19:21Z</time>
      </trkpt>
      <trkpt lat="43.01128" lon="1.60558">
        <ele>363.6</ele>
        <time>2018-05-17T15:20:13Z</time>
      </trkpt>
      <trkpt lat="43.0107" lon="1.60321">
        <ele>372.7</ele>
        <time>2018-05-17T15:20:56Z</time>
      </trkpt>
      <trkpt lat="43.01035" lon="1.60074">
        <ele>377.8</ele>
        <time>2018-05-17T15:21:37Z</time>
      </trkpt>
      <trkpt lat="43.00872" lon="1.60178">
        <ele>371.3</ele>
        <time>2018-05-17T15:29:02Z</time>
      </trkpt>
      <trkpt lat="43.00817" lon="1.6019">
        <ele>374.6</ele>
        <time>2018-05-17T15:38:20Z</time>
      </trkpt>
    </trkseg>
  </trk>
</gpx>